sensor_id;sensor_type;location;lat;lon;timestamp;temperature;humidity
20526;DHT22;10421;49.142;9.232;2023-07-13T00:01:53;24.80;72.90
20526;DHT22;10421;49.142;9.232;2023-07-13T00:04:22;24.80;72.80
20526;DHT22;10421;49.142;9.232;2023-07-13T00:06:51;24.80;72.90
20526;DHT22;10421;49.142;9.232;2023-07-13T00:09:18;24.80;72.80
20526;DHT22;10421;49.142;9.232;2023-07-13T00:11:49;24.80;72.90
20526;DHT22;10421;49.142;9.232;2023-07-13T00:14:17;24.80;72.80
20526;DHT22;10421;49.142;9.232;2023-07-13T00:16:44;24.70;72.70
20526;DHT22;10421;49.142;9.232;2023-07-13T00:19:12;24.70;73.00
20526;DHT22;10421;49.142;9.232;2023-07-13T00:21:39;24.70;72.70
20526;DHT22;10421;49.142;9.232;2023-07-13T00:24:06;24.70;72.60
20526;DHT22;10421;49.142;9.232;2023-07-13T00:26:33;24.60;72.70
20526;DHT22;10421;49.142;9.232;2023-07-13T00:29:00;24.60;72.80
20526;DHT22;10421;49.142;9.232;2023-07-13T00:31:28;24.60;72.70
20526;DHT22;10421;49.142;9.232;2023-07-13T00:33:54;24.70;72.30
20526;DHT22;10421;49.142;9.232;2023-07-13T00:36:21;24.70;71.70
20526;DHT22;10421;49.142;9.232;2023-07-13T00:38:48;24.70;71.10
20526;DHT22;10421;49.142;9.232;2023-07-13T00:41:15;24.70;71.40
20526;DHT22;10421;49.142;9.232;2023-07-13T00:43:41;24.60;71.00
20526;DHT22;10421;49.142;9.232;2023-07-13T00:46:28;24.60;71.30
20526;DHT22;10421;49.142;9.232;2023-07-13T00:48:59;24.60;71.30
20526;DHT22;10421;49.142;9.232;2023-07-13T00:51:31;24.50;70.90
20526;DHT22;10421;49.142;9.232;2023-07-13T00:54:02;24.50;71.10
20526;DHT22;10421;49.142;9.232;2023-07-13T00:56:30;24.40;71.20
20526;DHT22;10421;49.142;9.232;2023-07-13T00:58:58;24.40;71.40
20526;DHT22;10421;49.142;9.232;2023-07-13T01:01:27;24.40;71.50
20526;DHT22;10421;49.142;9.232;2023-07-13T01:03:54;24.40;71.50
20526;DHT22;10421;49.142;9.232;2023-07-13T01:06:22;24.40;71.50
20526;DHT22;10421;49.142;9.232;2023-07-13T01:08:49;24.40;71.70
20526;DHT22;10421;49.142;9.232;2023-07-13T01:11:19;24.40;71.80
20526;DHT22;10421;49.142;9.232;2023-07-13T01:13:46;24.40;71.60
20526;DHT22;10421;49.142;9.232;2023-07-13T01:16:17;24.40;71.60
20526;DHT22;10421;49.142;9.232;2023-07-13T01:18:47;24.40;71.60
20526;DHT22;10421;49.142;9.232;2023-07-13T01:21:15;24.40;71.60
20526;DHT22;10421;49.142;9.232;2023-07-13T01:23:42;24.40;71.60
20526;DHT22;10421;49.142;9.232;2023-07-13T01:26:09;24.30;71.40
20526;DHT22;10421;49.142;9.232;2023-07-13T01:28:37;24.30;71.40
20526;DHT22;10421;49.142;9.232;2023-07-13T01:31:04;24.30;71.50
20526;DHT22;10421;49.142;9.232;2023-07-13T01:33:31;24.30;71.50
20526;DHT22;10421;49.142;9.232;2023-07-13T01:36:00;24.30;71.50
20526;DHT22;10421;49.142;9.232;2023-07-13T01:38:28;24.30;71.60
20526;DHT22;10421;49.142;9.232;2023-07-13T01:40:55;24.30;71.70
20526;DHT22;10421;49.142;9.232;2023-07-13T01:43:22;24.30;71.80
20526;DHT22;10421;49.142;9.232;2023-07-13T01:45:49;24.30;72.10
20526;DHT22;10421;49.142;9.232;2023-07-13T01:48:15;24.20;71.90
20526;DHT22;10421;49.142;9.232;2023-07-13T01:50:42;24.20;72.10
20526;DHT22;10421;49.142;9.232;2023-07-13T01:53:09;24.20;72.20
20526;DHT22;10421;49.142;9.232;2023-07-13T01:55:37;24.10;72.30
20526;DHT22;10421;49.142;9.232;2023-07-13T01:58:05;24.10;72.50
20526;DHT22;10421;49.142;9.232;2023-07-13T02:00:32;24.10;72.70
20526;DHT22;10421;49.142;9.232;2023-07-13T02:02:59;24.00;72.70
20526;DHT22;10421;49.142;9.232;2023-07-13T02:05:26;23.90;72.70
20526;DHT22;10421;49.142;9.232;2023-07-13T02:07:53;23.90;73.70
20526;DHT22;10421;49.142;9.232;2023-07-13T02:10:20;23.80;73.00
20526;DHT22;10421;49.142;9.232;2023-07-13T02:12:48;23.90;73.10
20526;DHT22;10421;49.142;9.232;2023-07-13T02:15:16;23.90;73.20
20526;DHT22;10421;49.142;9.232;2023-07-13T02:17:43;23.80;73.30
20526;DHT22;10421;49.142;9.232;2023-07-13T02:20:10;23.80;74.20
20526;DHT22;10421;49.142;9.232;2023-07-13T02:22:37;23.80;73.40
20526;DHT22;10421;49.142;9.232;2023-07-13T02:25:04;23.80;73.30
20526;DHT22;10421;49.142;9.232;2023-07-13T02:27:31;23.80;74.00
20526;DHT22;10421;49.142;9.232;2023-07-13T02:29:59;23.70;73.20
20526;DHT22;10421;49.142;9.232;2023-07-13T02:32:26;23.60;73.60
20526;DHT22;10421;49.142;9.232;2023-07-13T02:34:52;23.50;73.70
20526;DHT22;10421;49.142;9.232;2023-07-13T02:37:19;23.50;73.90
20526;DHT22;10421;49.142;9.232;2023-07-13T02:39:46;23.50;74.00
20526;DHT22;10421;49.142;9.232;2023-07-13T02:42:14;23.50;74.10
20526;DHT22;10421;49.142;9.232;2023-07-13T02:44:40;23.60;74.00
20526;DHT22;10421;49.142;9.232;2023-07-13T02:47:08;23.70;73.80
20526;DHT22;10421;49.142;9.232;2023-07-13T02:49:35;23.60;73.60
20526;DHT22;10421;49.142;9.232;2023-07-13T02:52:03;23.70;73.80
20526;DHT22;10421;49.142;9.232;2023-07-13T02:54:29;23.70;73.80
20526;DHT22;10421;49.142;9.232;2023-07-13T02:56:56;23.70;74.20
20526;DHT22;10421;49.142;9.232;2023-07-13T02:59:23;23.70;74.60
20526;DHT22;10421;49.142;9.232;2023-07-13T03:01:50;23.70;74.80
20526;DHT22;10421;49.142;9.232;2023-07-13T03:04:18;23.70;74.70
20526;DHT22;10421;49.142;9.232;2023-07-13T03:06:45;23.70;74.80
20526;DHT22;10421;49.142;9.232;2023-07-13T03:09:13;23.60;74.80
20526;DHT22;10421;49.142;9.232;2023-07-13T03:11:39;23.60;75.30
20526;DHT22;10421;49.142;9.232;2023-07-13T03:14:07;23.60;75.50
20526;DHT22;10421;49.142;9.232;2023-07-13T03:16:34;23.50;75.90
20526;DHT22;10421;49.142;9.232;2023-07-13T03:19:00;23.50;76.10
20526;DHT22;10421;49.142;9.232;2023-07-13T03:21:28;23.40;76.40
20526;DHT22;10421;49.142;9.232;2023-07-13T03:23:55;23.40;76.50
20526;DHT22;10421;49.142;9.232;2023-07-13T03:26:22;23.30;76.80
20526;DHT22;10421;49.142;9.232;2023-07-13T03:28:49;23.30;76.90
20526;DHT22;10421;49.142;9.232;2023-07-13T03:31:18;23.20;77.20
20526;DHT22;10421;49.142;9.232;2023-07-13T03:33:45;23.20;77.40
20526;DHT22;10421;49.142;9.232;2023-07-13T03:36:14;23.10;77.50
20526;DHT22;10421;49.142;9.232;2023-07-13T03:38:46;23.10;77.80
20526;DHT22;10421;49.142;9.232;2023-07-13T03:41:13;23.10;77.90
20526;DHT22;10421;49.142;9.232;2023-07-13T03:43:40;23.10;78.10
20526;DHT22;10421;49.142;9.232;2023-07-13T03:46:07;23.00;78.10
20526;DHT22;10421;49.142;9.232;2023-07-13T03:48:33;23.00;78.20
20526;DHT22;10421;49.142;9.232;2023-07-13T03:51:00;23.00;78.20
20526;DHT22;10421;49.142;9.232;2023-07-13T03:53:27;23.00;78.20
20526;DHT22;10421;49.142;9.232;2023-07-13T03:55:55;23.00;78.40
20526;DHT22;10421;49.142;9.232;2023-07-13T03:58:31;23.00;78.50
20526;DHT22;10421;49.142;9.232;2023-07-13T04:01:00;23.00;78.70
20526;DHT22;10421;49.142;9.232;2023-07-13T04:03:28;22.90;78.60
20526;DHT22;10421;49.142;9.232;2023-07-13T04:05:55;22.90;78.50
20526;DHT22;10421;49.142;9.232;2023-07-13T04:08:25;22.90;78.40
20526;DHT22;10421;49.142;9.232;2023-07-13T04:10:52;22.80;78.60
20526;DHT22;10421;49.142;9.232;2023-07-13T04:13:20;22.80;78.90
20526;DHT22;10421;49.142;9.232;2023-07-13T04:15:47;22.70;78.90
20526;DHT22;10421;49.142;9.232;2023-07-13T04:18:14;22.70;79.20
20526;DHT22;10421;49.142;9.232;2023-07-13T04:20:40;22.70;79.30
20526;DHT22;10421;49.142;9.232;2023-07-13T04:23:07;22.60;79.30
20526;DHT22;10421;49.142;9.232;2023-07-13T04:25:34;22.60;79.50
20526;DHT22;10421;49.142;9.232;2023-07-13T04:28:02;22.60;79.80
20526;DHT22;10421;49.142;9.232;2023-07-13T04:30:31;22.60;79.80
20526;DHT22;10421;49.142;9.232;2023-07-13T04:32:58;22.60;79.90
20526;DHT22;10421;49.142;9.232;2023-07-13T04:35:24;22.70;80.00
20526;DHT22;10421;49.142;9.232;2023-07-13T04:37:51;22.60;80.70
20526;DHT22;10421;49.142;9.232;2023-07-13T04:40:18;22.60;80.20
20526;DHT22;10421;49.142;9.232;2023-07-13T04:42:46;22.50;80.30
20526;DHT22;10421;49.142;9.232;2023-07-13T04:45:14;22.40;80.30
20526;DHT22;10421;49.142;9.232;2023-07-13T04:47:42;22.40;80.40
20526;DHT22;10421;49.142;9.232;2023-07-13T04:50:09;22.40;80.60
20526;DHT22;10421;49.142;9.232;2023-07-13T04:52:36;22.40;80.50
20526;DHT22;10421;49.142;9.232;2023-07-13T04:55:04;22.40;80.20
20526;DHT22;10421;49.142;9.232;2023-07-13T04:57:31;22.40;80.20
20526;DHT22;10421;49.142;9.232;2023-07-13T04:59:59;22.40;80.30
20526;DHT22;10421;49.142;9.232;2023-07-13T05:02:26;22.40;80.10
20526;DHT22;10421;49.142;9.232;2023-07-13T05:04:55;22.50;80.00
20526;DHT22;10421;49.142;9.232;2023-07-13T05:07:21;22.50;79.80
20526;DHT22;10421;49.142;9.232;2023-07-13T05:09:48;22.60;79.80
20526;DHT22;10421;49.142;9.232;2023-07-13T05:12:16;22.60;80.30
20526;DHT22;10421;49.142;9.232;2023-07-13T05:14:43;22.60;79.30
20526;DHT22;10421;49.142;9.232;2023-07-13T05:17:10;22.70;79.40
20526;DHT22;10421;49.142;9.232;2023-07-13T05:19:36;22.80;79.40
20526;DHT22;10421;49.142;9.232;2023-07-13T05:22:05;22.80;79.30
20526;DHT22;10421;49.142;9.232;2023-07-13T05:24:32;22.80;79.20
20526;DHT22;10421;49.142;9.232;2023-07-13T05:26:59;22.80;79.30
20526;DHT22;10421;49.142;9.232;2023-07-13T05:29:25;22.90;79.40
20526;DHT22;10421;49.142;9.232;2023-07-13T05:31:52;22.90;79.70
20526;DHT22;10421;49.142;9.232;2023-07-13T05:34:19;22.90;79.30
20526;DHT22;10421;49.142;9.232;2023-07-13T05:36:46;23.00;79.30
20526;DHT22;10421;49.142;9.232;2023-07-13T05:39:14;23.00;79.10
20526;DHT22;10421;49.142;9.232;2023-07-13T05:41:41;23.10;79.10
20526;DHT22;10421;49.142;9.232;2023-07-13T05:44:08;23.20;79.00
20526;DHT22;10421;49.142;9.232;2023-07-13T05:46:34;23.20;78.80
20526;DHT22;10421;49.142;9.232;2023-07-13T05:49:01;23.30;78.60
20526;DHT22;10421;49.142;9.232;2023-07-13T05:51:28;23.30;78.60
20526;DHT22;10421;49.142;9.232;2023-07-13T05:53:55;23.30;78.60
20526;DHT22;10421;49.142;9.232;2023-07-13T05:56:23;23.30;78.40
20526;DHT22;10421;49.142;9.232;2023-07-13T05:58:50;23.30;77.60
20526;DHT22;10421;49.142;9.232;2023-07-13T06:01:17;23.30;77.40
20526;DHT22;10421;49.142;9.232;2023-07-13T06:03:46;23.30;76.30
20526;DHT22;10421;49.142;9.232;2023-07-13T06:06:13;23.20;75.10
20526;DHT22;10421;49.142;9.232;2023-07-13T06:08:40;23.10;74.70
20526;DHT22;10421;49.142;9.232;2023-07-13T06:11:10;22.90;74.70
20526;DHT22;10421;49.142;9.232;2023-07-13T06:13:39;22.80;75.10
20526;DHT22;10421;49.142;9.232;2023-07-13T06:16:05;22.70;75.50
20526;DHT22;10421;49.142;9.232;2023-07-13T06:18:34;22.70;75.70
20526;DHT22;10421;49.142;9.232;2023-07-13T06:21:05;22.50;75.70
20526;DHT22;10421;49.142;9.232;2023-07-13T06:23:31;22.50;76.20
20526;DHT22;10421;49.142;9.232;2023-07-13T06:25:58;22.50;75.90
20526;DHT22;10421;49.142;9.232;2023-07-13T06:28:25;22.50;76.30
20526;DHT22;10421;49.142;9.232;2023-07-13T06:30:53;22.40;76.20
20526;DHT22;10421;49.142;9.232;2023-07-13T06:33:19;22.40;76.60
20526;DHT22;10421;49.142;9.232;2023-07-13T06:35:46;22.50;76.50
20526;DHT22;10421;49.142;9.232;2023-07-13T06:38:13;22.50;76.50
20526;DHT22;10421;49.142;9.232;2023-07-13T06:40:40;22.50;76.50
20526;DHT22;10421;49.142;9.232;2023-07-13T06:43:07;22.40;77.00
20526;DHT22;10421;49.142;9.232;2023-07-13T06:45:36;22.40;76.90
20526;DHT22;10421;49.142;9.232;2023-07-13T06:48:08;22.50;77.00
20526;DHT22;10421;49.142;9.232;2023-07-13T06:50:34;22.40;77.00
20526;DHT22;10421;49.142;9.232;2023-07-13T06:53:01;22.40;77.00
20526;DHT22;10421;49.142;9.232;2023-07-13T06:55:28;22.50;77.10
20526;DHT22;10421;49.142;9.232;2023-07-13T06:57:54;22.50;76.90
20526;DHT22;10421;49.142;9.232;2023-07-13T07:00:21;22.50;76.50
20526;DHT22;10421;49.142;9.232;2023-07-13T07:02:48;22.60;76.60
20526;DHT22;10421;49.142;9.232;2023-07-13T07:05:16;22.60;76.30
20526;DHT22;10421;49.142;9.232;2023-07-13T07:07:44;22.70;75.70
20526;DHT22;10421;49.142;9.232;2023-07-13T07:10:10;22.70;75.20
20526;DHT22;10421;49.142;9.232;2023-07-13T07:12:37;22.80;75.30
20526;DHT22;10421;49.142;9.232;2023-07-13T07:15:05;22.90;75.00
20526;DHT22;10421;49.142;9.232;2023-07-13T07:17:31;23.00;74.90
20526;DHT22;10421;49.142;9.232;2023-07-13T07:19:58;23.20;74.80
20526;DHT22;10421;49.142;9.232;2023-07-13T07:22:26;23.30;74.20
20526;DHT22;10421;49.142;9.232;2023-07-13T07:24:53;23.40;73.90
20526;DHT22;10421;49.142;9.232;2023-07-13T07:27:20;23.40;72.90
20526;DHT22;10421;49.142;9.232;2023-07-13T07:29:47;23.40;72.90
20526;DHT22;10421;49.142;9.232;2023-07-13T07:32:13;23.40;72.80
20526;DHT22;10421;49.142;9.232;2023-07-13T07:34:40;23.50;72.80
20526;DHT22;10421;49.142;9.232;2023-07-13T07:37:09;23.70;72.50
20526;DHT22;10421;49.142;9.232;2023-07-13T07:39:38;23.70;71.60
20526;DHT22;10421;49.142;9.232;2023-07-13T07:42:06;23.80;70.90
20526;DHT22;10421;49.142;9.232;2023-07-13T07:44:33;23.80;70.90
20526;DHT22;10421;49.142;9.232;2023-07-13T07:47:00;24.00;70.90
20526;DHT22;10421;49.142;9.232;2023-07-13T07:49:27;24.00;70.20
20526;DHT22;10421;49.142;9.232;2023-07-13T07:51:54;24.00;70.00
20526;DHT22;10421;49.142;9.232;2023-07-13T07:54:21;24.00;70.00
20526;DHT22;10421;49.142;9.232;2023-07-13T07:56:49;23.80;70.50
20526;DHT22;10421;49.142;9.232;2023-07-13T07:59:15;23.90;70.50
20526;DHT22;10421;49.142;9.232;2023-07-13T08:01:42;23.90;71.00
20526;DHT22;10421;49.142;9.232;2023-07-13T08:04:11;24.00;70.90
20526;DHT22;10421;49.142;9.232;2023-07-13T08:06:38;24.00;70.50
20526;DHT22;10421;49.142;9.232;2023-07-13T08:09:04;24.10;70.90
20526;DHT22;10421;49.142;9.232;2023-07-13T08:11:31;24.20;68.90
20526;DHT22;10421;49.142;9.232;2023-07-13T08:14:00;24.30;67.50
20526;DHT22;10421;49.142;9.232;2023-07-13T08:16:26;24.60;68.00
20526;DHT22;10421;49.142;9.232;2023-07-13T08:18:53;24.80;67.30
20526;DHT22;10421;49.142;9.232;2023-07-13T08:21:20;25.00;66.50
20526;DHT22;10421;49.142;9.232;2023-07-13T08:23:47;25.20;65.60
20526;DHT22;10421;49.142;9.232;2023-07-13T08:26:14;25.40;64.40
20526;DHT22;10421;49.142;9.232;2023-07-13T08:28:41;25.60;64.70
20526;DHT22;10421;49.142;9.232;2023-07-13T08:31:09;25.80;66.00
20526;DHT22;10421;49.142;9.232;2023-07-13T08:33:36;25.90;64.20
20526;DHT22;10421;49.142;9.232;2023-07-13T08:36:04;26.00;62.80
20526;DHT22;10421;49.142;9.232;2023-07-13T08:38:31;26.10;61.80
20526;DHT22;10421;49.142;9.232;2023-07-13T08:40:58;26.20;62.10
20526;DHT22;10421;49.142;9.232;2023-07-13T08:43:27;26.20;60.50
20526;DHT22;10421;49.142;9.232;2023-07-13T08:45:59;26.20;59.60
20526;DHT22;10421;49.142;9.232;2023-07-13T08:48:32;26.20;59.50
20526;DHT22;10421;49.142;9.232;2023-07-13T08:51:04;26.20;58.80
20526;DHT22;10421;49.142;9.232;2023-07-13T08:53:36;26.10;59.50
20526;DHT22;10421;49.142;9.232;2023-07-13T08:56:09;26.20;59.60
20526;DHT22;10421;49.142;9.232;2023-07-13T08:58:39;26.30;59.90
20526;DHT22;10421;49.142;9.232;2023-07-13T09:01:15;26.40;59.90
20526;DHT22;10421;49.142;9.232;2023-07-13T09:03:52;26.60;59.70
20526;DHT22;10421;49.142;9.232;2023-07-13T09:06:31;26.70;59.50
20526;DHT22;10421;49.142;9.232;2023-07-13T09:09:03;26.80;59.80
20526;DHT22;10421;49.142;9.232;2023-07-13T09:11:42;26.80;58.90
20526;DHT22;10421;49.142;9.232;2023-07-13T09:14:28;27.00;58.80
20526;DHT22;10421;49.142;9.232;2023-07-13T09:16:58;27.00;58.10
20526;DHT22;10421;49.142;9.232;2023-07-13T09:19:30;27.10;58.60
20526;DHT22;10421;49.142;9.232;2023-07-13T09:21:59;27.20;58.10
20526;DHT22;10421;49.142;9.232;2023-07-13T09:24:32;27.20;57.20
20526;DHT22;10421;49.142;9.232;2023-07-13T09:27:05;27.10;57.60
20526;DHT22;10421;49.142;9.232;2023-07-13T09:29:37;27.20;56.50
20526;DHT22;10421;49.142;9.232;2023-07-13T09:32:10;27.30;56.10
20526;DHT22;10421;49.142;9.232;2023-07-13T09:34:40;27.30;55.10
20526;DHT22;10421;49.142;9.232;2023-07-13T09:37:07;27.10;54.00
20526;DHT22;10421;49.142;9.232;2023-07-13T09:39:37;27.10;54.50
20526;DHT22;10421;49.142;9.232;2023-07-13T09:42:14;27.10;54.90
20526;DHT22;10421;49.142;9.232;2023-07-13T09:44:51;27.00;55.10
20526;DHT22;10421;49.142;9.232;2023-07-13T09:47:20;27.00;55.50
20526;DHT22;10421;49.142;9.232;2023-07-13T09:49:56;27.20;55.90
20526;DHT22;10421;49.142;9.232;2023-07-13T09:52:24;27.30;54.50
20526;DHT22;10421;49.142;9.232;2023-07-13T09:54:53;27.30;53.50
20526;DHT22;10421;49.142;9.232;2023-07-13T09:57:25;27.30;53.60
20526;DHT22;10421;49.142;9.232;2023-07-13T09:59:54;27.30;53.60
20526;DHT22;10421;49.142;9.232;2023-07-13T10:02:26;27.50;53.60
20526;DHT22;10421;49.142;9.232;2023-07-13T10:04:59;27.60;53.00
20526;DHT22;10421;49.142;9.232;2023-07-13T10:07:26;27.70;53.50
20526;DHT22;10421;49.142;9.232;2023-07-13T10:09:54;27.90;53.50
20526;DHT22;10421;49.142;9.232;2023-07-13T10:12:21;27.90;53.50
20526;DHT22;10421;49.142;9.232;2023-07-13T10:14:51;27.80;53.00
20526;DHT22;10421;49.142;9.232;2023-07-13T10:17:24;28.00;53.20
20526;DHT22;10421;49.142;9.232;2023-07-13T10:19:52;28.10;52.20
20526;DHT22;10421;49.142;9.232;2023-07-13T10:22:27;28.00;51.10
20526;DHT22;10421;49.142;9.232;2023-07-13T10:24:54;28.00;50.50
20526;DHT22;10421;49.142;9.232;2023-07-13T10:27:27;28.00;51.10
20526;DHT22;10421;49.142;9.232;2023-07-13T10:30:02;28.00;50.70
20526;DHT22;10421;49.142;9.232;2023-07-13T10:32:31;27.90;50.60
20526;DHT22;10421;49.142;9.232;2023-07-13T10:34:58;27.90;51.70
20526;DHT22;10421;49.142;9.232;2023-07-13T10:37:33;28.00;50.80
20526;DHT22;10421;49.142;9.232;2023-07-13T10:40:06;27.90;50.90
20526;DHT22;10421;49.142;9.232;2023-07-13T10:42:41;28.00;50.60
20526;DHT22;10421;49.142;9.232;2023-07-13T10:45:14;28.30;50.80
20526;DHT22;10421;49.142;9.232;2023-07-13T10:47:41;28.50;50.80
20526;DHT22;10421;49.142;9.232;2023-07-13T10:50:17;28.70;50.50
20526;DHT22;10421;49.142;9.232;2023-07-13T10:52:48;28.90;50.10
20526;DHT22;10421;49.142;9.232;2023-07-13T10:55:33;28.90;49.30
20526;DHT22;10421;49.142;9.232;2023-07-13T10:58:02;28.90;48.70
20526;DHT22;10421;49.142;9.232;2023-07-13T11:00:32;28.90;49.00
20526;DHT22;10421;49.142;9.232;2023-07-13T11:03:14;29.00;48.60
20526;DHT22;10421;49.142;9.232;2023-07-13T11:05:41;29.20;48.40
20526;DHT22;10421;49.142;9.232;2023-07-13T11:08:18;29.20;48.70
20526;DHT22;10421;49.142;9.232;2023-07-13T11:10:49;29.30;48.30
20526;DHT22;10421;49.142;9.232;2023-07-13T11:13:39;29.20;47.10
20526;DHT22;10421;49.142;9.232;2023-07-13T11:16:35;29.20;48.20
20526;DHT22;10421;49.142;9.232;2023-07-13T11:19:27;29.10;48.40
20526;DHT22;10421;49.142;9.232;2023-07-13T11:22:11;29.20;48.70
20526;DHT22;10421;49.142;9.232;2023-07-13T11:24:56;29.30;47.40
20526;DHT22;10421;49.142;9.232;2023-07-13T11:27:35;29.40;47.40
20526;DHT22;10421;49.142;9.232;2023-07-13T11:30:24;29.30;47.30
20526;DHT22;10421;49.142;9.232;2023-07-13T11:33:03;29.10;47.10
20526;DHT22;10421;49.142;9.232;2023-07-13T11:35:34;28.90;47.00
20526;DHT22;10421;49.142;9.232;2023-07-13T11:38:13;28.80;46.90
20526;DHT22;10421;49.142;9.232;2023-07-13T11:40:44;28.60;46.30
20526;DHT22;10421;49.142;9.232;2023-07-13T11:43:13;28.60;46.60
20526;DHT22;10421;49.142;9.232;2023-07-13T11:45:41;28.70;46.20
20526;DHT22;10421;49.142;9.232;2023-07-13T11:48:22;28.80;45.50
20526;DHT22;10421;49.142;9.232;2023-07-13T11:50:51;29.00;46.10
20526;DHT22;10421;49.142;9.232;2023-07-13T11:53:20;28.90;46.00
20526;DHT22;10421;49.142;9.232;2023-07-13T11:55:48;29.10;46.00
20526;DHT22;10421;49.142;9.232;2023-07-13T11:58:21;29.20;45.10
20526;DHT22;10421;49.142;9.232;2023-07-13T12:00:49;29.30;45.30
20526;DHT22;10421;49.142;9.232;2023-07-13T12:03:20;29.30;45.50
20526;DHT22;10421;49.142;9.232;2023-07-13T12:06:01;29.30;44.50
20526;DHT22;10421;49.142;9.232;2023-07-13T12:08:28;29.30;44.90
20526;DHT22;10421;49.142;9.232;2023-07-13T12:11:04;29.30;43.20
20526;DHT22;10421;49.142;9.232;2023-07-13T12:13:36;29.40;44.00
20526;DHT22;10421;49.142;9.232;2023-07-13T12:16:11;29.50;45.10
20526;DHT22;10421;49.142;9.232;2023-07-13T12:18:37;29.70;45.20
20526;DHT22;10421;49.142;9.232;2023-07-13T12:21:05;29.80;44.80
20526;DHT22;10421;49.142;9.232;2023-07-13T12:23:34;30.00;44.60
20526;DHT22;10421;49.142;9.232;2023-07-13T12:26:04;29.80;42.10
20526;DHT22;10421;49.142;9.232;2023-07-13T12:28:34;29.60;42.30
20526;DHT22;10421;49.142;9.232;2023-07-13T12:31:03;29.60;43.60
20526;DHT22;10421;49.142;9.232;2023-07-13T12:33:31;29.70;43.40
20526;DHT22;10421;49.142;9.232;2023-07-13T12:36:01;29.80;42.90
20526;DHT22;10421;49.142;9.232;2023-07-13T12:38:29;29.80;43.00
20526;DHT22;10421;49.142;9.232;2023-07-13T12:40:56;30.00;44.60
20526;DHT22;10421;49.142;9.232;2023-07-13T12:43:25;30.20;44.90
20526;DHT22;10421;49.142;9.232;2023-07-13T12:45:57;30.30;45.00
20526;DHT22;10421;49.142;9.232;2023-07-13T12:48:24;30.50;45.30
20526;DHT22;10421;49.142;9.232;2023-07-13T12:50:54;30.60;44.20
20526;DHT22;10421;49.142;9.232;2023-07-13T12:53:22;30.70;44.10
20526;DHT22;10421;49.142;9.232;2023-07-13T12:55:52;30.70;43.70
20526;DHT22;10421;49.142;9.232;2023-07-13T12:58:24;30.60;43.90
20526;DHT22;10421;49.142;9.232;2023-07-13T13:00:54;30.50;44.30
20526;DHT22;10421;49.142;9.232;2023-07-13T13:03:25;30.40;44.30
20526;DHT22;10421;49.142;9.232;2023-07-13T13:06:02;30.50;44.80
20526;DHT22;10421;49.142;9.232;2023-07-13T13:08:30;30.50;45.20
20526;DHT22;10421;49.142;9.232;2023-07-13T13:10:57;30.60;44.80
20526;DHT22;10421;49.142;9.232;2023-07-13T13:13:24;30.70;45.40
20526;DHT22;10421;49.142;9.232;2023-07-13T13:15:51;30.80;45.20
20526;DHT22;10421;49.142;9.232;2023-07-13T13:18:20;30.90;44.90
20526;DHT22;10421;49.142;9.232;2023-07-13T13:20:47;31.00;44.90
20526;DHT22;10421;49.142;9.232;2023-07-13T13:23:15;30.80;44.60
20526;DHT22;10421;49.142;9.232;2023-07-13T13:25:43;30.70;43.70
20526;DHT22;10421;49.142;9.232;2023-07-13T13:28:14;30.70;44.40
20526;DHT22;10421;49.142;9.232;2023-07-13T13:30:41;30.70;45.10
20526;DHT22;10421;49.142;9.232;2023-07-13T13:33:10;30.80;44.90
20526;DHT22;10421;49.142;9.232;2023-07-13T13:35:40;30.80;45.00
20526;DHT22;10421;49.142;9.232;2023-07-13T13:38:11;30.80;45.20
20526;DHT22;10421;49.142;9.232;2023-07-13T13:40:39;30.80;45.20
20526;DHT22;10421;49.142;9.232;2023-07-13T13:43:14;30.80;44.80
20526;DHT22;10421;49.142;9.232;2023-07-13T13:45:42;30.70;45.00
20526;DHT22;10421;49.142;9.232;2023-07-13T13:48:14;30.70;45.00
20526;DHT22;10421;49.142;9.232;2023-07-13T13:50:43;30.70;43.90
20526;DHT22;10421;49.142;9.232;2023-07-13T13:53:10;30.70;43.80
20526;DHT22;10421;49.142;9.232;2023-07-13T13:55:38;30.60;44.20
20526;DHT22;10421;49.142;9.232;2023-07-13T13:58:07;30.60;45.00
20526;DHT22;10421;49.142;9.232;2023-07-13T14:00:34;30.60;44.00
20526;DHT22;10421;49.142;9.232;2023-07-13T14:03:01;30.60;44.30
20526;DHT22;10421;49.142;9.232;2023-07-13T14:05:28;30.60;43.90
20526;DHT22;10421;49.142;9.232;2023-07-13T14:07:57;30.60;43.80
20526;DHT22;10421;49.142;9.232;2023-07-13T14:10:25;30.60;43.50
20526;DHT22;10421;49.142;9.232;2023-07-13T14:12:54;30.70;43.30
20526;DHT22;10421;49.142;9.232;2023-07-13T14:15:24;30.80;42.60
20526;DHT22;10421;49.142;9.232;2023-07-13T14:17:51;30.80;42.40
20526;DHT22;10421;49.142;9.232;2023-07-13T14:20:18;30.80;42.80
20526;DHT22;10421;49.142;9.232;2023-07-13T14:22:45;30.80;42.70
20526;DHT22;10421;49.142;9.232;2023-07-13T14:25:14;30.80;42.80
20526;DHT22;10421;49.142;9.232;2023-07-13T14:27:43;30.80;42.00
20526;DHT22;10421;49.142;9.232;2023-07-13T14:30:13;30.90;42.20
20526;DHT22;10421;49.142;9.232;2023-07-13T14:32:41;30.90;42.00
20526;DHT22;10421;49.142;9.232;2023-07-13T14:35:08;30.90;41.30
20526;DHT22;10421;49.142;9.232;2023-07-13T14:37:37;30.80;41.80
20526;DHT22;10421;49.142;9.232;2023-07-13T14:40:14;30.80;42.00
20526;DHT22;10421;49.142;9.232;2023-07-13T14:42:41;30.90;41.70
20526;DHT22;10421;49.142;9.232;2023-07-13T14:45:20;30.90;42.10
20526;DHT22;10421;49.142;9.232;2023-07-13T14:47:47;31.00;42.40
20526;DHT22;10421;49.142;9.232;2023-07-13T14:50:16;31.00;42.70
20526;DHT22;10421;49.142;9.232;2023-07-13T14:52:44;31.20;42.80
20526;DHT22;10421;49.142;9.232;2023-07-13T14:55:14;31.30;42.50
20526;DHT22;10421;49.142;9.232;2023-07-13T14:57:41;31.30;42.30
20526;DHT22;10421;49.142;9.232;2023-07-13T15:00:13;31.30;41.90
20526;DHT22;10421;49.142;9.232;2023-07-13T15:02:42;31.20;41.90
20526;DHT22;10421;49.142;9.232;2023-07-13T15:05:13;31.30;42.30
20526;DHT22;10421;49.142;9.232;2023-07-13T15:07:41;31.30;41.70
20526;DHT22;10421;49.142;9.232;2023-07-13T15:10:15;31.40;41.20
20526;DHT22;10421;49.142;9.232;2023-07-13T15:12:42;31.40;41.20
20526;DHT22;10421;49.142;9.232;2023-07-13T15:15:09;31.50;41.30
20526;DHT22;10421;49.142;9.232;2023-07-13T15:17:38;31.50;41.00
20526;DHT22;10421;49.142;9.232;2023-07-13T15:20:11;31.40;40.00
20526;DHT22;10421;49.142;9.232;2023-07-13T15:22:40;31.30;39.60
20526;DHT22;10421;49.142;9.232;2023-07-13T15:25:15;31.30;39.30
20526;DHT22;10421;49.142;9.232;2023-07-13T15:27:42;31.20;39.50
20526;DHT22;10421;49.142;9.232;2023-07-13T15:30:10;31.10;38.90
20526;DHT22;10421;49.142;9.232;2023-07-13T15:32:37;31.10;38.70
20526;DHT22;10421;49.142;9.232;2023-07-13T15:35:05;31.10;39.00
20526;DHT22;10421;49.142;9.232;2023-07-13T15:37:32;31.00;39.50
20526;DHT22;10421;49.142;9.232;2023-07-13T15:39:58;30.80;39.80
20526;DHT22;10421;49.142;9.232;2023-07-13T15:42:27;30.80;39.70